sensor_id;sensor_type;location;lat;lon;timestamp;pressure;altitude;pressure_sealevel;temperature;humidity
66385;BME280;53426;55.872;37.462;2022-09-17T00:00:33;97491.06;;;10.15;93.58
66385;BME280;53426;55.872;37.462;2022-09-17T00:02:58;97513.03;;;10.24;93.45
66385;BME280;53426;55.872;37.462;2022-09-17T00:05:24;97513.88;;;10.24;93.15
66385;BME280;53426;55.872;37.462;2022-09-17T00:07:50;97506.94;;;10.15;93.23
66385;BME280;53426;55.872;37.462;2022-09-17T00:10:18;97521.19;;;10.14;93.63
66385;BME280;53426;55.872;37.462;2022-09-17T00:12:44;97522.34;;;10.12;93.22
66385;BME280;53426;55.872;37.462;2022-09-17T00:15:10;97531.63;;;10.07;93.03
66385;BME280;53426;55.872;37.462;2022-09-17T00:17:36;97528.31;;;10.05;93.06
66385;BME280;53426;55.872;37.462;2022-09-17T00:20:05;97529.66;;;10.01;92.88
66385;BME280;53426;55.872;37.462;2022-09-17T00:22:35;97520.94;;;9.93;93.25
66385;BME280;53426;55.872;37.462;2022-09-17T00:25:02;97528.25;;;9.91;93.18
66385;BME280;53426;55.872;37.462;2022-09-17T00:27:29;97531.72;;;9.91;93.33
66385;BME280;53426;55.872;37.462;2022-09-17T00:29:54;97534.88;;;9.87;93.24
66385;BME280;53426;55.872;37.462;2022-09-17T00:32:20;97542.81;;;9.87;93.31
66385;BME280;53426;55.872;37.462;2022-09-17T00:34:46;97538.00;;;9.82;93.00
66385;BME280;53426;55.872;37.462;2022-09-17T00:37:13;97553.41;;;9.79;92.81
66385;BME280;53426;55.872;37.462;2022-09-17T00:39:39;97536.13;;;9.68;93.17
66385;BME280;53426;55.872;37.462;2022-09-17T00:42:05;97538.75;;;9.68;92.88
66385;BME280;53426;55.872;37.462;2022-09-17T00:44:48;97548.34;;;9.69;92.69
66385;BME280;53426;55.872;37.462;2022-09-17T00:47:35;97538.75;;;9.68;93.14
66385;BME280;53426;55.872;37.462;2022-09-17T00:52:39;97544.25;;;9.58;92.83
66385;BME280;53426;55.872;37.462;2022-09-17T00:55:25;97535.50;;;9.50;92.80
66385;BME280;53426;55.872;37.462;2022-09-17T00:57:54;97548.56;;;9.51;93.00
66385;BME280;53426;55.872;37.462;2022-09-17T01:00:22;97543.44;;;9.50;93.02
66385;BME280;53426;55.872;37.462;2022-09-17T01:02:48;97544.13;;;9.44;92.70
66385;BME280;53426;55.872;37.462;2022-09-17T01:05:14;97536.72;;;9.39;93.13
66385;BME280;53426;55.872;37.462;2022-09-17T01:25:19;97554.41;;;9.22;92.78
66385;BME280;53426;55.872;37.462;2022-09-17T01:28:05;97554.28;;;9.16;92.82
66385;BME280;53426;55.872;37.462;2022-09-17T01:31:41;97558.91;;;9.14;92.54
66385;BME280;53426;55.872;37.462;2022-09-17T01:39:06;97543.75;;;8.92;92.46
66385;BME280;53426;55.872;37.462;2022-09-17T01:42:17;97556.75;;;9.01;92.56
66385;BME280;53426;55.872;37.462;2022-09-17T01:45:11;97555.31;;;8.99;92.51
66385;BME280;53426;55.872;37.462;2022-09-17T01:47:46;97548.03;;;8.85;92.60
66385;BME280;53426;55.872;37.462;2022-09-17T01:50:19;97541.81;;;8.77;92.74
66385;BME280;53426;55.872;37.462;2022-09-17T01:52:49;97550.34;;;8.79;92.59
66385;BME280;53426;55.872;37.462;2022-09-17T01:55:18;97554.50;;;8.82;92.61
66385;BME280;53426;55.872;37.462;2022-09-17T01:57:53;97564.22;;;8.81;92.70
66385;BME280;53426;55.872;37.462;2022-09-17T02:00:21;97567.16;;;8.78;92.33
66385;BME280;53426;55.872;37.462;2022-09-17T02:02:58;97564.19;;;8.73;92.59
66385;BME280;53426;55.872;37.462;2022-09-17T02:06:04;97569.66;;;8.72;92.46
66385;BME280;53426;55.872;37.462;2022-09-17T02:08:23;97569.34;;;8.67;92.28
66385;BME280;53426;55.872;37.462;2022-09-17T02:11:02;97555.31;;;8.58;92.40
66385;BME280;53426;55.872;37.462;2022-09-17T02:16:19;97578.25;;;8.66;91.90
66385;BME280;53426;55.872;37.462;2022-09-17T02:19:11;97575.44;;;8.59;92.23
66385;BME280;53426;55.872;37.462;2022-09-17T02:24:26;97565.53;;;8.53;91.94
66385;BME280;53426;55.872;37.462;2022-09-17T02:27:02;97579.06;;;8.58;92.29
66385;BME280;53426;55.872;37.462;2022-09-17T02:29:42;97574.91;;;8.48;92.19
66385;BME280;53426;55.872;37.462;2022-09-17T02:32:10;97562.88;;;8.37;92.11
66385;BME280;53426;55.872;37.462;2022-09-17T02:34:37;97581.50;;;8.52;92.17
66385;BME280;53426;55.872;37.462;2022-09-17T02:37:02;97581.38;;;8.45;91.81
66385;BME280;53426;55.872;37.462;2022-09-17T02:39:30;97593.22;;;8.49;92.02
66385;BME280;53426;55.872;37.462;2022-09-17T02:45:17;97588.78;;;8.50;91.95
66385;BME280;53426;55.872;37.462;2022-09-17T02:48:03;97588.94;;;8.48;91.61
66385;BME280;53426;55.872;37.462;2022-09-17T02:53:23;97600.63;;;8.46;92.04
66385;BME280;53426;55.872;37.462;2022-09-17T02:56:07;97602.78;;;8.42;91.83
66385;BME280;53426;55.872;37.462;2022-09-17T03:01:13;97602.44;;;8.37;91.60
66385;BME280;53426;55.872;37.462;2022-09-17T03:03:43;97610.19;;;8.38;91.53
66385;BME280;53426;55.872;37.462;2022-09-17T03:06:10;97608.53;;;8.37;91.84
66385;BME280;53426;55.872;37.462;2022-09-17T03:08:41;97606.72;;;8.38;91.72
66385;BME280;53426;55.872;37.462;2022-09-17T03:11:07;97597.28;;;8.27;91.78
66385;BME280;53426;55.872;37.462;2022-09-17T03:13:35;97605.06;;;8.37;91.69
66385;BME280;53426;55.872;37.462;2022-09-17T03:16:04;97614.94;;;8.35;91.34
66385;BME280;53426;55.872;37.462;2022-09-17T03:18:31;97618.25;;;8.37;91.74
66385;BME280;53426;55.872;37.462;2022-09-17T03:20:57;97617.13;;;8.39;91.32
66385;BME280;53426;55.872;37.462;2022-09-17T03:23:23;97553.22;;;8.04;91.17
66385;BME280;53426;55.872;37.462;2022-09-17T03:25:48;97620.41;;;8.42;91.67
66385;BME280;53426;55.872;37.462;2022-09-17T03:28:18;97616.78;;;8.43;91.50
66385;BME280;53426;55.872;37.462;2022-09-17T03:30:44;97613.31;;;8.42;91.50
66385;BME280;53426;55.872;37.462;2022-09-17T03:33:10;97612.00;;;8.46;91.40
66385;BME280;53426;55.872;37.462;2022-09-17T03:35:36;97613.16;;;8.44;91.28
66385;BME280;53426;55.872;37.462;2022-09-17T03:38:02;97618.63;;;8.50;91.38
66385;BME280;53426;55.872;37.462;2022-09-17T03:40:28;97606.22;;;8.43;91.34
66385;BME280;53426;55.872;37.462;2022-09-17T03:42:54;97618.44;;;8.52;91.20
66385;BME280;53426;55.872;37.462;2022-09-17T03:45:20;97623.25;;;8.56;91.01
66385;BME280;53426;55.872;37.462;2022-09-17T03:47:46;97611.03;;;8.55;91.16
66385;BME280;53426;55.872;37.462;2022-09-17T03:50:12;97617.28;;;8.62;90.91
66385;BME280;53426;55.872;37.462;2022-09-17T03:52:38;97621.09;;;8.68;90.79
66385;BME280;53426;55.872;37.462;2022-09-17T03:55:04;97624.75;;;8.67;90.62
66385;BME280;53426;55.872;37.462;2022-09-17T03:57:30;97626.06;;;8.71;90.40
66385;BME280;53426;55.872;37.462;2022-09-17T03:59:55;97638.41;;;8.78;90.78
66385;BME280;53426;55.872;37.462;2022-09-17T04:02:21;97617.47;;;8.69;90.14
66385;BME280;53426;55.872;37.462;2022-09-17T04:04:49;97642.72;;;8.79;90.06
66385;BME280;53426;55.872;37.462;2022-09-17T04:07:17;97644.69;;;8.86;90.16
66385;BME280;53426;55.872;37.462;2022-09-17T04:09:42;97641.75;;;8.89;90.15
66385;BME280;53426;55.872;37.462;2022-09-17T04:12:10;97635.16;;;8.93;90.09
66385;BME280;53426;55.872;37.462;2022-09-17T04:14:35;97638.13;;;8.98;89.67
66385;BME280;53426;55.872;37.462;2022-09-17T04:17:02;97639.44;;;8.94;89.70
66385;BME280;53426;55.872;37.462;2022-09-17T04:19:30;97642.06;;;9.02;89.77
66385;BME280;53426;55.872;37.462;2022-09-17T04:21:56;97643.03;;;9.01;89.44
66385;BME280;53426;55.872;37.462;2022-09-17T04:24:21;97625.91;;;8.97;89.00
66385;BME280;53426;55.872;37.462;2022-09-17T04:26:48;97654.09;;;9.12;88.73
66385;BME280;53426;55.872;37.462;2022-09-17T04:29:14;97655.94;;;9.20;88.79
66385;BME280;53426;55.872;37.462;2022-09-17T04:31:40;97635.84;;;9.66;89.37
66385;BME280;53426;55.872;37.462;2022-09-17T04:34:05;97645.41;;;10.84;88.66
66385;BME280;53426;55.872;37.462;2022-09-17T04:36:31;97668.16;;;11.76;86.83
66385;BME280;53426;55.872;37.462;2022-09-17T04:38:57;97661.69;;;12.44;84.15
66385;BME280;53426;55.872;37.462;2022-09-17T04:41:23;97659.63;;;12.75;77.19
66385;BME280;53426;55.872;37.462;2022-09-17T04:43:52;97633.75;;;13.05;75.07
66385;BME280;53426;55.872;37.462;2022-09-17T04:46:26;97661.88;;;13.70;75.06
66385;BME280;53426;55.872;37.462;2022-09-17T04:48:51;97639.75;;;13.97;74.79
66385;BME280;53426;55.872;37.462;2022-09-17T04:51:17;97658.13;;;14.27;72.96
66385;BME280;53426;55.872;37.462;2022-09-17T04:53:43;97641.88;;;14.49;68.78
66385;BME280;53426;55.872;37.462;2022-09-17T04:56:10;97658.63;;;15.24;70.64
66385;BME280;53426;55.872;37.462;2022-09-17T04:58:35;97659.06;;;15.67;68.35
66385;BME280;53426;55.872;37.462;2022-09-17T05:01:01;97668.41;;;16.22;66.20
66385;BME280;53426;55.872;37.462;2022-09-17T05:03:27;97653.50;;;15.95;61.18
66385;BME280;53426;55.872;37.462;2022-09-17T05:05:53;97676.13;;;16.56;64.15
66385;BME280;53426;55.872;37.462;2022-09-17T05:08:19;97674.16;;;16.83;60.85
66385;BME280;53426;55.872;37.462;2022-09-17T05:10:49;97664.97;;;17.35;59.84
66385;BME280;53426;55.872;37.462;2022-09-17T05:13:15;97665.50;;;17.75;58.59
66385;BME280;53426;55.872;37.462;2022-09-17T05:15:41;97659.09;;;18.01;53.38
66385;BME280;53426;55.872;37.462;2022-09-17T05:18:07;97660.44;;;18.28;55.45
66385;BME280;53426;55.872;37.462;2022-09-17T05:20:33;97680.19;;;18.70;52.62
66385;BME280;53426;55.872;37.462;2022-09-17T05:22:59;97670.78;;;18.79;51.39
66385;BME280;53426;55.872;37.462;2022-09-17T05:25:24;97632.59;;;18.66;50.63
66385;BME280;53426;55.872;37.462;2022-09-17T05:27:53;97662.31;;;19.24;48.57
66385;BME280;53426;55.872;37.462;2022-09-17T05:30:19;97674.66;;;19.13;48.95
66385;BME280;53426;55.872;37.462;2022-09-17T05:32:45;97684.69;;;19.59;46.82
66385;BME280;53426;55.872;37.462;2022-09-17T05:35:11;97676.31;;;20.14;46.18
66385;BME280;53426;55.872;37.462;2022-09-17T05:37:37;97677.78;;;20.97;44.78
66385;BME280;53426;55.872;37.462;2022-09-17T05:40:04;97681.25;;;21.37;43.02
66385;BME280;53426;55.872;37.462;2022-09-17T05:42:31;97647.56;;;21.68;41.90
66385;BME280;53426;55.872;37.462;2022-09-17T05:44:57;97691.25;;;21.70;41.56
66385;BME280;53426;55.872;37.462;2022-09-17T05:47:23;97686.16;;;20.83;42.32
66385;BME280;53426;55.872;37.462;2022-09-17T05:49:48;97679.66;;;21.69;41.94
66385;BME280;53426;55.872;37.462;2022-09-17T05:52:14;97696.22;;;22.11;40.36
66385;BME280;53426;55.872;37.462;2022-09-17T05:54:40;97702.88;;;22.64;39.36
66385;BME280;53426;55.872;37.462;2022-09-17T05:57:06;97697.63;;;23.45;37.83
66385;BME280;53426;55.872;37.462;2022-09-17T05:59:32;97683.50;;;23.64;35.68
66385;BME280;53426;55.872;37.462;2022-09-17T06:01:58;97694.34;;;23.43;36.31
66385;BME280;53426;55.872;37.462;2022-09-17T06:04:24;97688.66;;;23.66;36.02
66385;BME280;53426;55.872;37.462;2022-09-17T06:06:50;97713.88;;;23.23;36.79
66385;BME280;53426;55.872;37.462;2022-09-17T06:09:15;97705.31;;;22.05;39.31
66385;BME280;53426;55.872;37.462;2022-09-17T06:11:41;97714.00;;;23.11;38.34
66385;BME280;53426;55.872;37.462;2022-09-17T06:14:08;97708.63;;;22.89;38.59
66385;BME280;53426;55.872;37.462;2022-09-17T06:16:34;97702.41;;;21.62;39.15
66385;BME280;53426;55.872;37.462;2022-09-17T06:19:02;97707.25;;;21.03;41.33
66385;BME280;53426;55.872;37.462;2022-09-17T06:21:28;97706.94;;;20.36;41.85
66385;BME280;53426;55.872;37.462;2022-09-17T06:23:54;97697.34;;;20.40;42.10
66385;BME280;53426;55.872;37.462;2022-09-17T06:26:20;97704.28;;;19.48;43.47
66385;BME280;53426;55.872;37.462;2022-09-17T06:28:45;97703.53;;;19.94;42.28
66385;BME280;53426;55.872;37.462;2022-09-17T06:31:11;97710.56;;;20.42;42.39
66385;BME280;53426;55.872;37.462;2022-09-17T06:33:37;97715.59;;;20.38;42.04
66385;BME280;53426;55.872;37.462;2022-09-17T06:36:08;97719.63;;;19.71;43.07
66385;BME280;53426;55.872;37.462;2022-09-17T06:38:35;97712.59;;;19.47;43.86
66385;BME280;53426;55.872;37.462;2022-09-17T06:41:01;97718.34;;;19.74;44.15
66385;BME280;53426;55.872;37.462;2022-09-17T06:43:27;97715.19;;;19.77;43.80
66385;BME280;53426;55.872;37.462;2022-09-17T06:45:58;97704.44;;;21.10;41.18
66385;BME280;53426;55.872;37.462;2022-09-17T06:48:25;97718.09;;;21.20;40.83
66385;BME280;53426;55.872;37.462;2022-09-17T06:50:52;97722.69;;;21.36;40.66
66385;BME280;53426;55.872;37.462;2022-09-17T06:53:22;97717.47;;;20.89;42.98
66385;BME280;53426;55.872;37.462;2022-09-17T06:55:49;97713.81;;;20.21;43.07
66385;BME280;53426;55.872;37.462;2022-09-17T06:58:15;97720.78;;;19.63;42.84
66385;BME280;53426;55.872;37.462;2022-09-17T07:00:41;97730.84;;;19.38;43.45
66385;BME280;53426;55.872;37.462;2022-09-17T07:03:08;97731.22;;;19.12;44.47
66385;BME280;53426;55.872;37.462;2022-09-17T07:05:33;97727.53;;;18.76;45.33
66385;BME280;53426;55.872;37.462;2022-09-17T07:08:00;97732.31;;;18.56;46.27
66385;BME280;53426;55.872;37.462;2022-09-17T07:10:30;97727.50;;;18.40;46.07
66385;BME280;53426;55.872;37.462;2022-09-17T07:12:58;97735.91;;;18.01;46.81
66385;BME280;53426;55.872;37.462;2022-09-17T07:15:24;97742.91;;;18.02;46.23
66385;BME280;53426;55.872;37.462;2022-09-17T07:17:50;97737.28;;;17.85;47.06
66385;BME280;53426;55.872;37.462;2022-09-17T07:20:16;97744.41;;;17.35;47.30
66385;BME280;53426;55.872;37.462;2022-09-17T07:22:42;97743.31;;;17.18;48.17
66385;BME280;53426;55.872;37.462;2022-09-17T07:25:08;97735.72;;;17.08;47.65
66385;BME280;53426;55.872;37.462;2022-09-17T07:27:36;97750.00;;;16.95;47.60
66385;BME280;53426;55.872;37.462;2022-09-17T07:30:02;97743.22;;;16.86;48.10
66385;BME280;53426;55.872;37.462;2022-09-17T07:32:29;97757.41;;;16.93;47.84
66385;BME280;53426;55.872;37.462;2022-09-17T07:34:56;97738.94;;;16.85;47.42
66385;BME280;53426;55.872;37.462;2022-09-17T07:37:22;97736.44;;;16.90;47.40
66385;BME280;53426;55.872;37.462;2022-09-17T07:39:51;97755.91;;;17.42;46.86
66385;BME280;53426;55.872;37.462;2022-09-17T07:42:16;97761.94;;;17.69;46.60
66385;BME280;53426;55.872;37.462;2022-09-17T07:44:42;97749.22;;;17.89;45.81
66385;BME280;53426;55.872;37.462;2022-09-17T07:47:08;97737.81;;;18.00;45.64
66385;BME280;53426;55.872;37.462;2022-09-17T07:49:34;97758.59;;;18.23;44.53
66385;BME280;53426;55.872;37.462;2022-09-17T07:52:00;97759.16;;;17.82;45.07
66385;BME280;53426;55.872;37.462;2022-09-17T07:54:32;97755.00;;;18.11;45.22
66385;BME280;53426;55.872;37.462;2022-09-17T07:56:58;97758.16;;;18.44;44.93
66385;BME280;53426;55.872;37.462;2022-09-17T07:59:24;97749.84;;;19.07;43.20
66385;BME280;53426;55.872;37.462;2022-09-17T08:01:50;97761.44;;;19.79;42.17
66385;BME280;53426;55.872;37.462;2022-09-17T08:04:15;97755.81;;;19.69;41.72
66385;BME280;53426;55.872;37.462;2022-09-17T08:06:41;97756.22;;;20.30;41.29
66385;BME280;53426;55.872;37.462;2022-09-17T08:09:07;97753.78;;;20.17;41.02
66385;BME280;53426;55.872;37.462;2022-09-17T08:11:35;97740.75;;;20.84;38.98
66385;BME280;53426;55.872;37.462;2022-09-17T08:14:01;97750.56;;;20.90;39.51
66385;BME280;53426;55.872;37.462;2022-09-17T08:16:27;97754.09;;;21.31;36.75
66385;BME280;53426;55.872;37.462;2022-09-17T08:18:54;97767.38;;;21.20;37.27
66385;BME280;53426;55.872;37.462;2022-09-17T08:21:21;97754.78;;;21.99;36.10
66385;BME280;53426;55.872;37.462;2022-09-17T08:23:47;97750.44;;;22.15;35.64
66385;BME280;53426;55.872;37.462;2022-09-17T08:26:17;97760.59;;;23.23;33.42
66385;BME280;53426;55.872;37.462;2022-09-17T08:28:51;97755.06;;;24.57;32.14
66385;BME280;53426;55.872;37.462;2022-09-17T08:31:20;97760.78;;;24.24;31.54
66385;BME280;53426;55.872;37.462;2022-09-17T08:33:46;97753.34;;;24.09;32.08
66385;BME280;53426;55.872;37.462;2022-09-17T08:36:14;97756.59;;;24.43;32.11
66385;BME280;53426;55.872;37.462;2022-09-17T08:38:40;97760.88;;;25.54;30.50
66385;BME280;53426;55.872;37.462;2022-09-17T08:43:40;97757.97;;;26.11;29.39
66385;BME280;53426;55.872;37.462;2022-09-17T08:46:08;97749.31;;;26.44;29.06
66385;BME280;53426;55.872;37.462;2022-09-17T08:48:46;97741.19;;;26.29;29.11
66385;BME280;53426;55.872;37.462;2022-09-17T08:54:01;97756.09;;;26.01;29.23
66385;BME280;53426;55.872;37.462;2022-09-17T08:56:34;97737.56;;;26.69;27.31
66385;BME280;53426;55.872;37.462;2022-09-17T09:00:19;97756.09;;;27.80;27.51
66385;BME280;53426;55.872;37.462;2022-09-17T09:05:41;97746.69;;;28.59;25.62
66385;BME280;53426;55.872;37.462;2022-09-17T09:11:00;97762.72;;;28.37;24.97
66385;BME280;53426;55.872;37.462;2022-09-17T09:13:32;97748.16;;;28.52;24.43
66385;BME280;53426;55.872;37.462;2022-09-17T09:16:19;97746.38;;;28.37;24.78
66385;BME280;53426;55.872;37.462;2022-09-17T09:18:59;97723.50;;;27.75;24.16
66385;BME280;53426;55.872;37.462;2022-09-17T09:21:43;97740.75;;;27.95;24.62
66385;BME280;53426;55.872;37.462;2022-09-17T09:26:46;97748.19;;;28.18;23.58
66385;BME280;53426;55.872;37.462;2022-09-17T09:29:36;97759.44;;;29.59;22.42
66385;BME280;53426;55.872;37.462;2022-09-17T09:34:47;97756.44;;;27.15;24.03
66385;BME280;53426;55.872;37.462;2022-09-17T09:37:25;97732.34;;;26.93;24.41
66385;BME280;53426;55.872;37.462;2022-09-17T09:40:00;97751.50;;;24.52;26.46
66385;BME280;53426;55.872;37.462;2022-09-17T09:42:34;97758.69;;;24.78;26.34
66385;BME280;53426;55.872;37.462;2022-09-17T09:45:16;97752.56;;;23.28;27.89
66385;BME280;53426;55.872;37.462;2022-09-17T09:47:59;97767.06;;;22.24;29.47
66385;BME280;53426;55.872;37.462;2022-09-17T09:53:21;97776.09;;;21.27;32.49
66385;BME280;53426;55.872;37.462;2022-09-17T10:00:57;97772.63;;;20.40;33.87
66385;BME280;53426;55.872;37.462;2022-09-17T10:03:26;97769.56;;;20.25;34.39
66385;BME280;53426;55.872;37.462;2022-09-17T10:06:01;97774.44;;;19.93;34.83
66385;BME280;53426;55.872;37.462;2022-09-17T10:12:16;97780.13;;;18.96;36.72
66385;BME280;53426;55.872;37.462;2022-09-17T10:14:45;97788.81;;;18.55;36.21
66385;BME280;53426;55.872;37.462;2022-09-17T10:17:21;97787.50;;;19.90;34.85
66385;BME280;53426;55.872;37.462;2022-09-17T10:22:36;97791.25;;;19.89;35.65
66385;BME280;53426;55.872;37.462;2022-09-17T10:25:16;97795.13;;;19.51;35.56
66385;BME280;53426;55.872;37.462;2022-09-17T10:27:45;97783.28;;;19.22;36.95
66385;BME280;53426;55.872;37.462;2022-09-17T10:32:37;97798.97;;;18.71;36.76
66385;BME280;53426;55.872;37.462;2022-09-17T10:35:13;97790.25;;;18.75;37.43
66385;BME280;53426;55.872;37.462;2022-09-17T10:37:50;97789.66;;;18.73;36.56
66385;BME280;53426;55.872;37.462;2022-09-17T10:45:25;97796.78;;;17.93;38.05
66385;BME280;53426;55.872;37.462;2022-09-17T10:47:51;97793.38;;;17.42;38.67
66385;BME280;53426;55.872;37.462;2022-09-17T10:50:27;97776.44;;;17.17;38.88
66385;BME280;53426;55.872;37.462;2022-09-17T10:52:57;97809.00;;;17.45;39.23
66385;BME280;53426;55.872;37.462;2022-09-17T10:55:51;97811.00;;;17.56;39.73
66385;BME280;53426;55.872;37.462;2022-09-17T11:03:54;97803.47;;;20.73;34.04
66385;BME280;53426;55.872;37.462;2022-09-17T11:09:29;97808.59;;;18.54;35.51
66385;BME280;53426;55.872;37.462;2022-09-17T11:15:05;97812.66;;;17.88;36.84
66385;BME280;53426;55.872;37.462;2022-09-17T11:28:48;97804.22;;;18.16;37.31
66385;BME280;53426;55.872;37.462;2022-09-17T11:39:15;97814.78;;;18.29;37.39
66385;BME280;53426;55.872;37.462;2022-09-17T11:41:45;97814.47;;;17.94;37.89
66385;BME280;53426;55.872;37.462;2022-09-17T11:44:29;97828.59;;;17.77;39.13
66385;BME280;53426;55.872;37.462;2022-09-17T11:50:02;97821.53;;;17.51;39.89
66385;BME280;53426;55.872;37.462;2022-09-17T11:52:43;97802.16;;;17.18;38.79
66385;BME280;53426;55.872;37.462;2022-09-17T11:55:26;97808.00;;;16.95;39.49
66385;BME280;53426;55.872;37.462;2022-09-17T11:58:07;97816.41;;;16.98;40.00
66385;BME280;53426;55.872;37.462;2022-09-17T12:00:42;97822.00;;;16.84;39.82
66385;BME280;53426;55.872;37.462;2022-09-17T12:03:13;97827.00;;;16.60;40.75
66385;BME280;53426;55.872;37.462;2022-09-17T12:05:48;97816.72;;;16.57;39.92
66385;BME280;53426;55.872;37.462;2022-09-17T12:08:20;97810.50;;;16.83;40.71
66385;BME280;53426;55.872;37.462;2022-09-17T12:10:52;97822.34;;;17.07;39.65
66385;BME280;53426;55.872;37.462;2022-09-17T12:16:24;97829.38;;;16.95;40.44
66385;BME280;53426;55.872;37.462;2022-09-17T12:19:16;97818.50;;;16.83;40.68
66385;BME280;53426;55.872;37.462;2022-09-17T12:21:48;97800.69;;;16.57;41.45
66385;BME280;53426;55.872;37.462;2022-09-17T12:24:27;97817.13;;;16.67;40.81
66385;BME280;53426;55.872;37.462;2022-09-17T12:37:47;97857.00;;;16.23;43.30
66385;BME280;53426;55.872;37.462;2022-09-17T12:40:32;97855.13;;;16.10;43.80
66385;BME280;53426;55.872;37.462;2022-09-17T12:59:32;97865.63;;;16.05;44.82
66385;BME280;53426;55.872;37.462;2022-09-17T13:12:38;97891.88;;;15.95;45.63
66385;BME280;53426;55.872;37.462;2022-09-17T13:21:37;97874.25;;;16.20;46.65
66385;BME280;53426;55.872;37.462;2022-09-17T13:24:16;97852.28;;;15.92;46.94
66385;BME280;53426;55.872;37.462;2022-09-17T13:26:42;97875.25;;;15.93;47.04
66385;BME280;53426;55.872;37.462;2022-09-17T13:29:11;97867.84;;;15.82;46.58
66385;BME280;53426;55.872;37.462;2022-09-17T13:36:52;97814.97;;;15.44;46.73
66385;BME280;53426;55.872;37.462;2022-09-17T13:42:52;97864.13;;;15.63;46.75
66385;BME280;53426;55.872;37.462;2022-09-17T13:45:31;97868.59;;;15.56;46.71
66385;BME280;53426;55.872;37.462;2022-09-17T13:48:07;97860.59;;;15.56;46.74
66385;BME280;53426;55.872;37.462;2022-09-17T13:50:42;97859.31;;;15.45;46.99
66385;BME280;53426;55.872;37.462;2022-09-17T13:55:51;97869.59;;;15.48;46.99
66385;BME280;53426;55.872;37.462;2022-09-17T14:01:00;97882.19;;;15.68;48.85
66385;BME280;53426;55.872;37.462;2022-09-17T14:16:53;97820.47;;;14.76;49.89
66385;BME280;53426;55.872;37.462;2022-09-17T14:22:22;97871.06;;;15.17;49.46
66385;BME280;53426;55.872;37.462;2022-09-17T14:24:53;97873.97;;;15.15;49.41
66385;BME280;53426;55.872;37.462;2022-09-17T14:30:23;97924.75;;;15.07;50.39
66385;BME280;53426;55.872;37.462;2022-09-17T14:35:22;97915.16;;;13.87;56.55
66385;BME280;53426;55.872;37.462;2022-09-17T14:37:57;97897.53;;;13.64;54.88
66385;BME280;53426;55.872;37.462;2022-09-17T14:40:25;97880.44;;;13.52;55.79
66385;BME280;53426;55.872;37.462;2022-09-17T14:42:56;97873.13;;;13.39;55.87
66385;BME280;53426;55.872;37.462;2022-09-17T14:50:46;97889.28;;;13.23;54.80
66385;BME280;53426;55.872;37.462;2022-09-17T15:00:27;97890.41;;;13.14;57.48
66385;BME280;53426;55.872;37.462;2022-09-17T15:02:56;97905.78;;;13.19;57.22
66385;BME280;53426;55.872;37.462;2022-09-17T15:05:35;97900.22;;;13.14;58.76
66385;BME280;53426;55.872;37.462;2022-09-17T15:08:12;97914.53;;;13.05;58.19
66385;BME280;53426;55.872;37.462;2022-09-17T15:11:01;97909.34;;;12.96;57.62
66385;BME280;53426;55.872;37.462;2022-09-17T15:13:34;97905.09;;;12.87;57.64
66385;BME280;53426;55.872;37.462;2022-09-17T15:16:01;97913.00;;;12.81;58.05
66385;BME280;53426;55.872;37.462;2022-09-17T15:18:53;97895.69;;;12.70;58.66
66385;BME280;53426;55.872;37.462;2022-09-17T15:21:37;97909.69;;;12.79;59.01
66385;BME280;53426;55.872;37.462;2022-09-17T15:24:09;97907.22;;;12.77;60.50
66385;BME280;53426;55.872;37.462;2022-09-17T15:26:42;97919.50;;;12.78;60.18
66385;BME280;53426;55.872;37.462;2022-09-17T15:29:27;97914.19;;;12.78;60.38
66385;BME280;53426;55.872;37.462;2022-09-17T15:31:55;97903.28;;;12.73;60.95
66385;BME280;53426;55.872;37.462;2022-09-17T15:34:22;97928.28;;;12.93;60.86
66385;BME280;53426;55.872;37.462;2022-09-17T15:37:18;97929.59;;;12.97;60.95
66385;BME280;53426;55.872;37.462;2022-09-17T15:39:49;97940.00;;;12.99;60.71
66385;BME280;53426;55.872;37.462;2022-09-17T15:42:26;97928.75;;;12.97;60.49
66385;BME280;53426;55.872;37.462;2022-09-17T15:45:19;97918.50;;;12.94;60.66
66385;BME280;53426;55.872;37.462;2022-09-17T15:47:57;97927.00;;;12.89;60.60
66385;BME280;53426;55.872;37.462;2022-09-17T15:55:43;97911.63;;;12.70;61.06
66385;BME280;53426;55.872;37.462;2022-09-17T16:06:33;97946.88;;;12.64;61.21
66385;BME280;53426;55.872;37.462;2022-09-17T16:09:00;97948.41;;;12.58;61.92
66385;BME280;53426;55.872;37.462;2022-09-17T16:11:30;97944.66;;;12.53;62.54
66385;BME280;53426;55.872;37.462;2022-09-17T16:13:59;97933.09;;;12.46;62.69
66385;BME280;53426;55.872;37.462;2022-09-17T16:16:31;97937.56;;;12.45;62.92
66385;BME280;53426;55.872;37.462;2022-09-17T16:18:59;97942.97;;;12.37;62.56
66385;BME280;53426;55.872;37.462;2022-09-17T16:21:25;97960.50;;;12.38;63.16
66385;BME280;53426;55.872;37.462;2022-09-17T16:23:51;97958.88;;;12.37;62.81
66385;BME280;53426;55.872;37.462;2022-09-17T16:26:28;97947.50;;;12.29;63.48
66385;BME280;53426;55.872;37.462;2022-09-17T16:29:00;97948.50;;;12.28;63.46
66385;BME280;53426;55.872;37.462;2022-09-17T16:31:27;97937.19;;;12.11;63.43
66385;BME280;53426;55.872;37.462;2022-09-17T16:33:54;97959.09;;;12.28;63.75
66385;BME280;53426;55.872;37.462;2022-09-17T16:36:20;97967.59;;;12.23;64.53
66385;BME280;53426;55.872;37.462;2022-09-17T16:38:46;97969.72;;;12.28;64.77
66385;BME280;53426;55.872;37.462;2022-09-17T16:41:12;97923.56;;;11.91;64.72
66385;BME280;53426;55.872;37.462;2022-09-17T16:43:41;97961.72;;;12.13;65.48
66385;BME280;53426;55.872;37.462;2022-09-17T16:46:08;97979.94;;;12.16;65.91
66385;BME280;53426;55.872;37.462;2022-09-17T16:48:37;97968.56;;;12.07;66.27
66385;BME280;53426;55.872;37.462;2022-09-17T16:51:07;97981.81;;;12.07;66.31